sensor_id;sensor_type;location;lat;lon;timestamp;temperature;humidity
5061;DHT22;2549;52.128;21.068;2023-09-12T00:01:08;22.40;99.90
5061;DHT22;2549;52.128;21.068;2023-09-12T00:03:35;22.40;99.90
5061;DHT22;2549;52.128;21.068;2023-09-12T00:06:03;22.30;99.90
5061;DHT22;2549;52.128;21.068;2023-09-12T00:08:31;22.30;99.90
5061;DHT22;2549;52.128;21.068;2023-09-12T00:11:05;22.30;99.90
5061;DHT22;2549;52.128;21.068;2023-09-12T00:13:33;22.30;99.90
5061;DHT22;2549;52.128;21.068;2023-09-12T00:16:00;22.30;99.90
5061;DHT22;2549;52.128;21.068;2023-09-12T00:18:28;22.20;99.90
5061;DHT22;2549;52.128;21.068;2023-09-12T00:20:55;22.20;99.90
5061;DHT22;2549;52.128;21.068;2023-09-12T00:23:22;22.20;99.90
5061;DHT22;2549;52.128;21.068;2023-09-12T00:25:50;22.20;99.90
5061;DHT22;2549;52.128;21.068;2023-09-12T00:28:21;22.20;99.90
5061;DHT22;2549;52.128;21.068;2023-09-12T00:30:47;22.10;99.90
5061;DHT22;2549;52.128;21.068;2023-09-12T00:33:14;22.10;99.90
5061;DHT22;2549;52.128;21.068;2023-09-12T00:35:43;22.10;99.90
5061;DHT22;2549;52.128;21.068;2023-09-12T00:38:10;22.10;99.90
5061;DHT22;2549;52.128;21.068;2023-09-12T00:40:37;22.10;99.90
5061;DHT22;2549;52.128;21.068;2023-09-12T00:43:04;22.10;99.90
5061;DHT22;2549;52.128;21.068;2023-09-12T00:45:31;22.10;99.90
5061;DHT22;2549;52.128;21.068;2023-09-12T00:48:00;22.10;99.90
5061;DHT22;2549;52.128;21.068;2023-09-12T00:50:29;22.10;99.90
5061;DHT22;2549;52.128;21.068;2023-09-12T00:52:57;22.10;99.90
5061;DHT22;2549;52.128;21.068;2023-09-12T00:55:25;22.10;99.90
5061;DHT22;2549;52.128;21.068;2023-09-12T00:57:53;22.10;99.90
5061;DHT22;2549;52.128;21.068;2023-09-12T01:00:20;22.00;99.90
5061;DHT22;2549;52.128;21.068;2023-09-12T01:02:47;22.10;99.90
5061;DHT22;2549;52.128;21.068;2023-09-12T01:05:16;22.10;99.90
5061;DHT22;2549;52.128;21.068;2023-09-12T01:07:44;22.10;99.90
5061;DHT22;2549;52.128;21.068;2023-09-12T01:10:11;22.10;99.90
5061;DHT22;2549;52.128;21.068;2023-09-12T01:12:38;22.10;99.90
5061;DHT22;2549;52.128;21.068;2023-09-12T01:15:05;22.10;99.90
5061;DHT22;2549;52.128;21.068;2023-09-12T01:17:36;22.10;99.90
5061;DHT22;2549;52.128;21.068;2023-09-12T01:20:05;22.00;99.90
5061;DHT22;2549;52.128;21.068;2023-09-12T01:28:15;22.00;99.90
5061;DHT22;2549;52.128;21.068;2023-09-12T01:30:45;21.90;99.90
5061;DHT22;2549;52.128;21.068;2023-09-12T01:33:13;21.90;99.90
5061;DHT22;2549;52.128;21.068;2023-09-12T01:35:40;21.90;99.90
5061;DHT22;2549;52.128;21.068;2023-09-12T01:38:07;21.90;99.90
5061;DHT22;2549;52.128;21.068;2023-09-12T01:40:47;21.90;99.90
5061;DHT22;2549;52.128;21.068;2023-09-12T01:43:18;21.80;99.90
5061;DHT22;2549;52.128;21.068;2023-09-12T01:45:52;21.80;99.90
5061;DHT22;2549;52.128;21.068;2023-09-12T01:48:22;21.80;99.90
5061;DHT22;2549;52.128;21.068;2023-09-12T01:50:50;21.70;99.90
5061;DHT22;2549;52.128;21.068;2023-09-12T01:53:18;21.70;99.90
5061;DHT22;2549;52.128;21.068;2023-09-12T01:55:47;21.70;99.90
5061;DHT22;2549;52.128;21.068;2023-09-12T01:58:15;21.70;99.90
5061;DHT22;2549;52.128;21.068;2023-09-12T02:00:42;21.70;99.90
5061;DHT22;2549;52.128;21.068;2023-09-12T02:03:09;21.70;99.90
5061;DHT22;2549;52.128;21.068;2023-09-12T02:05:36;21.70;99.90
5061;DHT22;2549;52.128;21.068;2023-09-12T02:08:04;21.60;99.90
5061;DHT22;2549;52.128;21.068;2023-09-12T02:10:31;21.60;99.90
5061;DHT22;2549;52.128;21.068;2023-09-12T02:12:59;21.60;99.90
5061;DHT22;2549;52.128;21.068;2023-09-12T02:15:25;21.60;99.90
5061;DHT22;2549;52.128;21.068;2023-09-12T02:17:52;21.60;99.90
5061;DHT22;2549;52.128;21.068;2023-09-12T02:20:19;21.50;99.90
5061;DHT22;2549;52.128;21.068;2023-09-12T02:22:47;21.50;99.90
5061;DHT22;2549;52.128;21.068;2023-09-12T02:25:14;21.40;99.90
5061;DHT22;2549;52.128;21.068;2023-09-12T02:27:41;21.40;99.90
5061;DHT22;2549;52.128;21.068;2023-09-12T02:30:08;21.40;99.90
5061;DHT22;2549;52.128;21.068;2023-09-12T02:32:35;21.40;99.90
5061;DHT22;2549;52.128;21.068;2023-09-12T02:35:02;21.40;99.90
5061;DHT22;2549;52.128;21.068;2023-09-12T02:37:29;21.30;99.90
5061;DHT22;2549;52.128;21.068;2023-09-12T02:39:56;21.30;99.90
5061;DHT22;2549;52.128;21.068;2023-09-12T02:42:23;21.30;99.90
5061;DHT22;2549;52.128;21.068;2023-09-12T02:44:51;21.30;99.90
5061;DHT22;2549;52.128;21.068;2023-09-12T02:47:19;21.30;99.90
5061;DHT22;2549;52.128;21.068;2023-09-12T02:49:46;21.30;99.90
5061;DHT22;2549;52.128;21.068;2023-09-12T02:52:13;21.30;99.90
5061;DHT22;2549;52.128;21.068;2023-09-12T02:54:39;21.30;99.90
5061;DHT22;2549;52.128;21.068;2023-09-12T02:57:06;21.40;99.90
5061;DHT22;2549;52.128;21.068;2023-09-12T02:59:33;21.30;99.90
5061;DHT22;2549;52.128;21.068;2023-09-12T03:02:00;21.30;99.90
5061;DHT22;2549;52.128;21.068;2023-09-12T03:04:29;21.30;99.90
5061;DHT22;2549;52.128;21.068;2023-09-12T03:06:56;21.30;99.90
5061;DHT22;2549;52.128;21.068;2023-09-12T03:09:23;21.20;99.90
5061;DHT22;2549;52.128;21.068;2023-09-12T03:11:51;21.20;99.90
5061;DHT22;2549;52.128;21.068;2023-09-12T03:14:18;21.20;99.90
5061;DHT22;2549;52.128;21.068;2023-09-12T03:16:44;21.20;99.90
5061;DHT22;2549;52.128;21.068;2023-09-12T03:19:11;21.20;99.90
5061;DHT22;2549;52.128;21.068;2023-09-12T03:21:38;21.20;99.90
5061;DHT22;2549;52.128;21.068;2023-09-12T03:24:05;21.20;99.90
5061;DHT22;2549;52.128;21.068;2023-09-12T03:26:34;21.10;99.90
5061;DHT22;2549;52.128;21.068;2023-09-12T03:29:02;21.10;99.90
5061;DHT22;2549;52.128;21.068;2023-09-12T03:31:29;21.10;99.90
5061;DHT22;2549;52.128;21.068;2023-09-12T03:33:56;21.00;99.90
5061;DHT22;2549;52.128;21.068;2023-09-12T03:36:23;21.00;99.90
5061;DHT22;2549;52.128;21.068;2023-09-12T03:38:49;21.00;99.90
5061;DHT22;2549;52.128;21.068;2023-09-12T03:41:16;21.00;99.90
5061;DHT22;2549;52.128;21.068;2023-09-12T03:43:44;21.00;99.90
5061;DHT22;2549;52.128;21.068;2023-09-12T03:46:10;21.00;99.90
5061;DHT22;2549;52.128;21.068;2023-09-12T03:48:37;21.00;99.90
5061;DHT22;2549;52.128;21.068;2023-09-12T03:51:04;20.90;99.90
5061;DHT22;2549;52.128;21.068;2023-09-12T03:53:31;20.90;99.90
5061;DHT22;2549;52.128;21.068;2023-09-12T03:55:58;20.90;99.90
5061;DHT22;2549;52.128;21.068;2023-09-12T03:58:26;20.90;99.90
5061;DHT22;2549;52.128;21.068;2023-09-12T04:00:53;20.90;99.90
5061;DHT22;2549;52.128;21.068;2023-09-12T04:03:20;20.90;99.90
5061;DHT22;2549;52.128;21.068;2023-09-12T04:05:48;20.90;99.90
5061;DHT22;2549;52.128;21.068;2023-09-12T04:08:14;20.90;99.90
5061;DHT22;2549;52.128;21.068;2023-09-12T04:10:42;20.90;99.90
5061;DHT22;2549;52.128;21.068;2023-09-12T04:13:09;20.80;99.90
5061;DHT22;2549;52.128;21.068;2023-09-12T04:15:36;20.80;99.90
5061;DHT22;2549;52.128;21.068;2023-09-12T04:18:03;20.80;99.90
5061;DHT22;2549;52.128;21.068;2023-09-12T04:20:30;20.90;99.90
5061;DHT22;2549;52.128;21.068;2023-09-12T04:23:00;20.90;99.90
5061;DHT22;2549;52.128;21.068;2023-09-12T04:25:26;20.90;99.90
5061;DHT22;2549;52.128;21.068;2023-09-12T04:27:53;20.80;99.90
5061;DHT22;2549;52.128;21.068;2023-09-12T04:30:20;20.90;99.90
5061;DHT22;2549;52.128;21.068;2023-09-12T04:32:47;20.90;99.90
5061;DHT22;2549;52.128;21.068;2023-09-12T04:35:14;20.90;99.90
5061;DHT22;2549;52.128;21.068;2023-09-12T04:37:41;20.90;99.90
5061;DHT22;2549;52.128;21.068;2023-09-12T04:40:08;20.80;99.90
5061;DHT22;2549;52.128;21.068;2023-09-12T04:42:35;20.90;99.90
5061;DHT22;2549;52.128;21.068;2023-09-12T04:45:02;20.90;99.90
5061;DHT22;2549;52.128;21.068;2023-09-12T04:47:29;20.90;99.90
5061;DHT22;2549;52.128;21.068;2023-09-12T04:49:56;20.90;99.90
5061;DHT22;2549;52.128;21.068;2023-09-12T04:52:23;20.90;99.90
5061;DHT22;2549;52.128;21.068;2023-09-12T04:54:50;20.90;99.90
5061;DHT22;2549;52.128;21.068;2023-09-12T04:57:16;20.90;99.90
5061;DHT22;2549;52.128;21.068;2023-09-12T04:59:43;20.90;99.90
5061;DHT22;2549;52.128;21.068;2023-09-12T05:02:10;21.00;99.90
5061;DHT22;2549;52.128;21.068;2023-09-12T05:04:37;21.00;99.90
5061;DHT22;2549;52.128;21.068;2023-09-12T05:07:04;21.00;99.90
5061;DHT22;2549;52.128;21.068;2023-09-12T05:09:31;21.00;99.90
5061;DHT22;2549;52.128;21.068;2023-09-12T05:11:58;21.10;99.90
5061;DHT22;2549;52.128;21.068;2023-09-12T05:14:24;21.10;99.90
5061;DHT22;2549;52.128;21.068;2023-09-12T05:16:51;21.10;99.90
5061;DHT22;2549;52.128;21.068;2023-09-12T05:19:19;21.10;99.90
5061;DHT22;2549;52.128;21.068;2023-09-12T05:21:46;21.10;99.90
5061;DHT22;2549;52.128;21.068;2023-09-12T05:24:13;21.10;99.90
5061;DHT22;2549;52.128;21.068;2023-09-12T05:26:40;21.20;99.90
5061;DHT22;2549;52.128;21.068;2023-09-12T05:29:10;21.20;99.90
5061;DHT22;2549;52.128;21.068;2023-09-12T05:31:36;21.20;99.90
5061;DHT22;2549;52.128;21.068;2023-09-12T05:34:03;21.20;99.90
5061;DHT22;2549;52.128;21.068;2023-09-12T05:36:30;21.30;99.90
5061;DHT22;2549;52.128;21.068;2023-09-12T05:38:57;21.30;99.90
5061;DHT22;2549;52.128;21.068;2023-09-12T05:41:26;21.30;99.90
5061;DHT22;2549;52.128;21.068;2023-09-12T05:43:53;21.30;99.90
5061;DHT22;2549;52.128;21.068;2023-09-12T05:46:19;21.30;99.90
5061;DHT22;2549;52.128;21.068;2023-09-12T05:48:46;21.40;99.90
5061;DHT22;2549;52.128;21.068;2023-09-12T05:51:13;21.40;99.90
5061;DHT22;2549;52.128;21.068;2023-09-12T05:53:40;21.40;99.90
5061;DHT22;2549;52.128;21.068;2023-09-12T05:56:07;21.50;99.90
5061;DHT22;2549;52.128;21.068;2023-09-12T05:58:34;21.50;99.90
5061;DHT22;2549;52.128;21.068;2023-09-12T06:01:02;21.50;99.90
5061;DHT22;2549;52.128;21.068;2023-09-12T06:03:29;21.50;99.90
5061;DHT22;2549;52.128;21.068;2023-09-12T06:05:56;21.60;99.90
5061;DHT22;2549;52.128;21.068;2023-09-12T06:08:23;21.60;99.90
5061;DHT22;2549;52.128;21.068;2023-09-12T06:10:50;21.60;99.90
5061;DHT22;2549;52.128;21.068;2023-09-12T06:13:20;21.60;99.90
5061;DHT22;2549;52.128;21.068;2023-09-12T06:15:47;21.70;99.90
5061;DHT22;2549;52.128;21.068;2023-09-12T06:18:14;21.70;99.90
5061;DHT22;2549;52.128;21.068;2023-09-12T06:20:41;21.70;99.90
5061;DHT22;2549;52.128;21.068;2023-09-12T06:23:09;21.70;99.90
5061;DHT22;2549;52.128;21.068;2023-09-12T06:25:37;21.80;99.90
5061;DHT22;2549;52.128;21.068;2023-09-12T06:28:05;21.80;99.90
5061;DHT22;2549;52.128;21.068;2023-09-12T06:30:32;21.80;99.90
5061;DHT22;2549;52.128;21.068;2023-09-12T06:32:59;21.80;99.90
5061;DHT22;2549;52.128;21.068;2023-09-12T06:35:26;21.90;99.90
5061;DHT22;2549;52.128;21.068;2023-09-12T06:37:54;21.90;99.90
5061;DHT22;2549;52.128;21.068;2023-09-12T06:40:22;21.90;99.90
5061;DHT22;2549;52.128;21.068;2023-09-12T06:42:49;21.90;99.90
5061;DHT22;2549;52.128;21.068;2023-09-12T06:45:16;22.00;99.90
5061;DHT22;2549;52.128;21.068;2023-09-12T06:47:43;22.00;99.90
5061;DHT22;2549;52.128;21.068;2023-09-12T06:50:10;22.00;99.90
5061;DHT22;2549;52.128;21.068;2023-09-12T06:52:41;22.10;99.90
5061;DHT22;2549;52.128;21.068;2023-09-12T06:55:08;22.10;99.90
5061;DHT22;2549;52.128;21.068;2023-09-12T06:57:35;22.10;99.90
5061;DHT22;2549;52.128;21.068;2023-09-12T07:00:02;22.10;99.90
5061;DHT22;2549;52.128;21.068;2023-09-12T07:02:33;22.20;99.90
5061;DHT22;2549;52.128;21.068;2023-09-12T07:05:00;22.20;99.90
5061;DHT22;2549;52.128;21.068;2023-09-12T07:07:27;22.20;99.90
5061;DHT22;2549;52.128;21.068;2023-09-12T07:09:54;22.30;99.90
5061;DHT22;2549;52.128;21.068;2023-09-12T07:12:33;22.30;99.90
5061;DHT22;2549;52.128;21.068;2023-09-12T07:15:01;22.30;99.90
5061;DHT22;2549;52.128;21.068;2023-09-12T07:17:28;22.40;99.90
5061;DHT22;2549;52.128;21.068;2023-09-12T07:19:55;22.40;99.90
5061;DHT22;2549;52.128;21.068;2023-09-12T07:22:22;22.40;99.90
5061;DHT22;2549;52.128;21.068;2023-09-12T07:24:49;22.50;99.90
5061;DHT22;2549;52.128;21.068;2023-09-12T07:27:16;22.50;99.90
5061;DHT22;2549;52.128;21.068;2023-09-12T07:29:42;22.50;99.90
5061;DHT22;2549;52.128;21.068;2023-09-12T07:32:09;22.60;99.90
5061;DHT22;2549;52.128;21.068;2023-09-12T07:34:36;22.60;99.90
5061;DHT22;2549;52.128;21.068;2023-09-12T07:37:04;22.70;99.90
5061;DHT22;2549;52.128;21.068;2023-09-12T07:39:31;22.70;99.90
5061;DHT22;2549;52.128;21.068;2023-09-12T07:41:58;22.70;99.90
5061;DHT22;2549;52.128;21.068;2023-09-12T07:44:24;22.80;99.90
5061;DHT22;2549;52.128;21.068;2023-09-12T07:46:51;22.90;99.90
5061;DHT22;2549;52.128;21.068;2023-09-12T07:49:18;22.90;99.90
5061;DHT22;2549;52.128;21.068;2023-09-12T07:51:45;22.90;99.90
5061;DHT22;2549;52.128;21.068;2023-09-12T07:54:12;23.00;99.90
5061;DHT22;2549;52.128;21.068;2023-09-12T07:56:39;23.00;99.90
5061;DHT22;2549;52.128;21.068;2023-09-12T07:59:06;23.00;99.90
5061;DHT22;2549;52.128;21.068;2023-09-12T08:01:32;23.10;99.90
5061;DHT22;2549;52.128;21.068;2023-09-12T08:03:59;23.10;99.90
5061;DHT22;2549;52.128;21.068;2023-09-12T08:06:26;23.20;99.90
5061;DHT22;2549;52.128;21.068;2023-09-12T08:08:54;23.30;99.90
5061;DHT22;2549;52.128;21.068;2023-09-12T08:11:21;23.30;99.90
5061;DHT22;2549;52.128;21.068;2023-09-12T08:13:49;23.30;99.90
5061;DHT22;2549;52.128;21.068;2023-09-12T08:16:16;23.40;99.90
5061;DHT22;2549;52.128;21.068;2023-09-12T08:18:43;23.40;99.90
5061;DHT22;2549;52.128;21.068;2023-09-12T08:21:11;23.40;99.90
5061;DHT22;2549;52.128;21.068;2023-09-12T08:23:38;23.40;99.90
5061;DHT22;2549;52.128;21.068;2023-09-12T08:26:05;23.50;99.90
5061;DHT22;2549;52.128;21.068;2023-09-12T08:28:32;23.60;99.90
5061;DHT22;2549;52.128;21.068;2023-09-12T08:30:59;23.60;99.90
5061;DHT22;2549;52.128;21.068;2023-09-12T08:33:26;23.60;99.90
5061;DHT22;2549;52.128;21.068;2023-09-12T08:35:53;23.70;99.90
5061;DHT22;2549;52.128;21.068;2023-09-12T08:38:20;23.70;99.90
5061;DHT22;2549;52.128;21.068;2023-09-12T08:40:50;23.70;99.90
5061;DHT22;2549;52.128;21.068;2023-09-12T08:43:18;23.70;99.90
5061;DHT22;2549;52.128;21.068;2023-09-12T08:45:45;23.80;99.90
5061;DHT22;2549;52.128;21.068;2023-09-12T08:48:13;23.90;99.90
5061;DHT22;2549;52.128;21.068;2023-09-12T08:50:42;23.80;99.90
5061;DHT22;2549;52.128;21.068;2023-09-12T08:53:09;23.90;99.90
5061;DHT22;2549;52.128;21.068;2023-09-12T08:55:36;23.90;99.90
5061;DHT22;2549;52.128;21.068;2023-09-12T08:58:05;24.00;99.90
5061;DHT22;2549;52.128;21.068;2023-09-12T09:00:32;24.10;99.90
5061;DHT22;2549;52.128;21.068;2023-09-12T09:03:01;24.10;99.90
5061;DHT22;2549;52.128;21.068;2023-09-12T09:05:29;24.10;99.90
5061;DHT22;2549;52.128;21.068;2023-09-12T09:07:58;24.10;99.90
5061;DHT22;2549;52.128;21.068;2023-09-12T09:10:27;24.10;99.90
5061;DHT22;2549;52.128;21.068;2023-09-12T09:13:16;24.10;99.90
5061;DHT22;2549;52.128;21.068;2023-09-12T09:15:43;24.30;99.90
5061;DHT22;2549;52.128;21.068;2023-09-12T09:18:10;24.30;99.90
5061;DHT22;2549;52.128;21.068;2023-09-12T09:20:40;24.40;99.90
5061;DHT22;2549;52.128;21.068;2023-09-12T09:23:09;24.40;99.90
5061;DHT22;2549;52.128;21.068;2023-09-12T09:25:42;24.40;99.90
5061;DHT22;2549;52.128;21.068;2023-09-12T09:28:20;24.50;99.90
5061;DHT22;2549;52.128;21.068;2023-09-12T09:30:48;24.60;99.90
5061;DHT22;2549;52.128;21.068;2023-09-12T09:33:16;24.60;99.90
5061;DHT22;2549;52.128;21.068;2023-09-12T09:35:47;24.60;99.90
5061;DHT22;2549;52.128;21.068;2023-09-12T09:38:15;24.60;99.90
5061;DHT22;2549;52.128;21.068;2023-09-12T09:40:45;24.60;99.90
5061;DHT22;2549;52.128;21.068;2023-09-12T09:43:12;24.70;99.90
5061;DHT22;2549;52.128;21.068;2023-09-12T09:45:45;24.80;99.90
5061;DHT22;2549;52.128;21.068;2023-09-12T09:48:24;24.80;99.90
5061;DHT22;2549;52.128;21.068;2023-09-12T09:51:03;24.90;99.90
5061;DHT22;2549;52.128;21.068;2023-09-12T09:53:30;24.90;99.90
5061;DHT22;2549;52.128;21.068;2023-09-12T09:56:12;24.90;99.90
5061;DHT22;2549;52.128;21.068;2023-09-12T09:58:57;24.80;98.70
5061;DHT22;2549;52.128;21.068;2023-09-12T10:01:28;25.00;99.30
5061;DHT22;2549;52.128;21.068;2023-09-12T10:04:00;25.00;99.90
5061;DHT22;2549;52.128;21.068;2023-09-12T10:06:29;25.10;99.90
5061;DHT22;2549;52.128;21.068;2023-09-12T10:08:59;25.10;99.80
5061;DHT22;2549;52.128;21.068;2023-09-12T10:11:28;25.20;99.90
5061;DHT22;2549;52.128;21.068;2023-09-12T10:14:00;25.20;97.90
5061;DHT22;2549;52.128;21.068;2023-09-12T10:16:33;25.10;96.60
5061;DHT22;2549;52.128;21.068;2023-09-12T10:19:16;25.20;97.10
5061;DHT22;2549;52.128;21.068;2023-09-12T10:21:54;25.30;97.50
5061;DHT22;2549;52.128;21.068;2023-09-12T10:24:27;25.30;97.90
5061;DHT22;2549;52.128;21.068;2023-09-12T10:26:55;25.40;98.20
5061;DHT22;2549;52.128;21.068;2023-09-12T10:29:22;25.40;97.80
5061;DHT22;2549;52.128;21.068;2023-09-12T10:31:49;25.50;97.80
5061;DHT22;2549;52.128;21.068;2023-09-12T10:34:16;25.50;97.70
5061;DHT22;2549;52.128;21.068;2023-09-12T10:36:45;25.50;98.10
5061;DHT22;2549;52.128;21.068;2023-09-12T10:39:14;25.50;97.60
5061;DHT22;2549;52.128;21.068;2023-09-12T10:41:41;25.50;97.50
5061;DHT22;2549;52.128;21.068;2023-09-12T10:44:17;25.50;97.00
5061;DHT22;2549;52.128;21.068;2023-09-12T10:46:45;25.50;95.60
5061;DHT22;2549;52.128;21.068;2023-09-12T10:49:14;25.50;95.10
5061;DHT22;2549;52.128;21.068;2023-09-12T10:51:42;25.70;93.70
5061;DHT22;2549;52.128;21.068;2023-09-12T10:54:14;25.90;94.00
5061;DHT22;2549;52.128;21.068;2023-09-12T10:56:42;26.00;94.60
5061;DHT22;2549;52.128;21.068;2023-09-12T10:59:11;26.00;95.30
5061;DHT22;2549;52.128;21.068;2023-09-12T11:01:43;26.00;95.60
5061;DHT22;2549;52.128;21.068;2023-09-12T11:06:46;26.00;95.60
5061;DHT22;2549;52.128;21.068;2023-09-12T11:09:26;26.00;95.40
5061;DHT22;2549;52.128;21.068;2023-09-12T11:12:03;26.00;94.00
5061;DHT22;2549;52.128;21.068;2023-09-12T11:14:30;26.10;94.50
5061;DHT22;2549;52.128;21.068;2023-09-12T11:19:48;26.20;94.80
5061;DHT22;2549;52.128;21.068;2023-09-12T11:22:25;26.20;94.80
5061;DHT22;2549;52.128;21.068;2023-09-12T11:24:53;26.10;94.10
5061;DHT22;2549;52.128;21.068;2023-09-12T11:27:25;26.10;93.00
5061;DHT22;2549;52.128;21.068;2023-09-12T11:30:03;26.20;93.30
5061;DHT22;2549;52.128;21.068;2023-09-12T11:32:32;26.30;93.00
5061;DHT22;2549;52.128;21.068;2023-09-12T11:35:06;26.20;93.00
5061;DHT22;2549;52.128;21.068;2023-09-12T11:37:34;26.20;92.60
5061;DHT22;2549;52.128;21.068;2023-09-12T11:42:40;26.40;93.10
5061;DHT22;2549;52.128;21.068;2023-09-12T11:45:11;26.40;93.00
5061;DHT22;2549;52.128;21.068;2023-09-12T11:47:42;26.50;93.50
5061;DHT22;2549;52.128;21.068;2023-09-12T11:50:35;26.50;94.30
5061;DHT22;2549;52.128;21.068;2023-09-12T11:53:08;26.50;94.00
5061;DHT22;2549;52.128;21.068;2023-09-12T11:55:42;26.50;94.00
5061;DHT22;2549;52.128;21.068;2023-09-12T11:58:19;26.50;94.90
5061;DHT22;2549;52.128;21.068;2023-09-12T12:00:49;26.50;94.00
5061;DHT22;2549;52.128;21.068;2023-09-12T12:03:17;26.50;94.20
5061;DHT22;2549;52.128;21.068;2023-09-12T12:05:45;26.50;93.40
5061;DHT22;2549;52.128;21.068;2023-09-12T12:08:14;26.50;92.10
5061;DHT22;2549;52.128;21.068;2023-09-12T12:10:58;26.70;92.50
5061;DHT22;2549;52.128;21.068;2023-09-12T12:13:25;26.80;92.40
5061;DHT22;2549;52.128;21.068;2023-09-12T12:15:55;27.00;92.60
5061;DHT22;2549;52.128;21.068;2023-09-12T12:18:23;27.10;92.40
5061;DHT22;2549;52.128;21.068;2023-09-12T12:20:50;27.10;93.00
5061;DHT22;2549;52.128;21.068;2023-09-12T12:23:17;27.20;93.00
5061;DHT22;2549;52.128;21.068;2023-09-12T12:25:44;27.00;91.80
5061;DHT22;2549;52.128;21.068;2023-09-12T12:28:11;27.00;92.70
5061;DHT22;2549;52.128;21.068;2023-09-12T12:30:39;27.10;93.10
5061;DHT22;2549;52.128;21.068;2023-09-12T12:33:08;27.10;92.70
5061;DHT22;2549;52.128;21.068;2023-09-12T12:36:03;27.20;92.40
5061;DHT22;2549;52.128;21.068;2023-09-12T12:38:37;27.20;92.00
5061;DHT22;2549;52.128;21.068;2023-09-12T12:41:23;27.20;90.40
5061;DHT22;2549;52.128;21.068;2023-09-12T12:43:51;27.20;90.80
5061;DHT22;2549;52.128;21.068;2023-09-12T12:46:20;27.20;92.20
5061;DHT22;2549;52.128;21.068;2023-09-12T12:48:48;27.20;91.40
5061;DHT22;2549;52.128;21.068;2023-09-12T12:51:21;27.20;91.50
5061;DHT22;2549;52.128;21.068;2023-09-12T12:53:54;27.30;91.50
5061;DHT22;2549;52.128;21.068;2023-09-12T12:56:27;27.30;91.70
5061;DHT22;2549;52.128;21.068;2023-09-12T12:59:01;27.30;91.90
5061;DHT22;2549;52.128;21.068;2023-09-12T13:01:37;27.30;91.10
5061;DHT22;2549;52.128;21.068;2023-09-12T13:04:06;27.40;91.40
5061;DHT22;2549;52.128;21.068;2023-09-12T13:06:34;27.40;91.40
5061;DHT22;2549;52.128;21.068;2023-09-12T13:09:04;27.40;91.30
5061;DHT22;2549;52.128;21.068;2023-09-12T13:11:32;27.30;91.00
5061;DHT22;2549;52.128;21.068;2023-09-12T13:14:03;27.50;91.20
5061;DHT22;2549;52.128;21.068;2023-09-12T13:16:37;27.50;91.50
5061;DHT22;2549;52.128;21.068;2023-09-12T13:19:09;27.60;91.30
5061;DHT22;2549;52.128;21.068;2023-09-12T13:21:37;27.50;90.60
5061;DHT22;2549;52.128;21.068;2023-09-12T13:24:04;27.50;91.00
5061;DHT22;2549;52.128;21.068;2023-09-12T13:26:31;27.40;91.30
5061;DHT22;2549;52.128;21.068;2023-09-12T13:28:58;27.40;91.80
5061;DHT22;2549;52.128;21.068;2023-09-12T13:31:25;27.40;91.90
5061;DHT22;2549;52.128;21.068;2023-09-12T13:33:52;27.40;91.80
5061;DHT22;2549;52.128;21.068;2023-09-12T13:36:19;27.50;91.80
5061;DHT22;2549;52.128;21.068;2023-09-12T13:38:46;27.40;91.90
5061;DHT22;2549;52.128;21.068;2023-09-12T13:41:15;27.40;91.10
5061;DHT22;2549;52.128;21.068;2023-09-12T13:43:42;27.40;90.80
5061;DHT22;2549;52.128;21.068;2023-09-12T13:46:12;27.50;91.10
5061;DHT22;2549;52.128;21.068;2023-09-12T13:48:39;27.40;91.50
5061;DHT22;2549;52.128;21.068;2023-09-12T13:51:07;27.30;91.30
5061;DHT22;2549;52.128;21.068;2023-09-12T13:53:34;27.30;91.80
5061;DHT22;2549;52.128;21.068;2023-09-12T13:56:00;27.30;91.60
5061;DHT22;2549;52.128;21.068;2023-09-12T13:58:28;27.30;91.50
5061;DHT22;2549;52.128;21.068;2023-09-12T14:01:09;27.40;91.50
5061;DHT22;2549;52.128;21.068;2023-09-12T14:03:40;27.40;91.30
5061;DHT22;2549;52.128;21.068;2023-09-12T14:06:08;27.30;91.00
5061;DHT22;2549;52.128;21.068;2023-09-12T14:08:35;27.40;91.40
5061;DHT22;2549;52.128;21.068;2023-09-12T14:11:03;27.40;91.20
5061;DHT22;2549;52.128;21.068;2023-09-12T14:13:32;27.50;91.50
5061;DHT22;2549;52.128;21.068;2023-09-12T14:15:59;27.40;91.30
5061;DHT22;2549;52.128;21.068;2023-09-12T14:18:27;27.40;91.40
5061;DHT22;2549;52.128;21.068;2023-09-12T14:20:54;27.50;90.90
5061;DHT22;2549;52.128;21.068;2023-09-12T14:23:22;27.50;91.20
5061;DHT22;2549;52.128;21.068;2023-09-12T14:25:49;27.60;91.80
5061;DHT22;2549;52.128;21.068;2023-09-12T14:28:16;27.60;91.80
5061;DHT22;2549;52.128;21.068;2023-09-12T14:30:45;27.60;92.20
5061;DHT22;2549;52.128;21.068;2023-09-12T14:33:12;27.50;92.00
5061;DHT22;2549;52.128;21.068;2023-09-12T14:35:43;27.50;92.00
5061;DHT22;2549;52.128;21.068;2023-09-12T14:38:11;27.50;91.90
5061;DHT22;2549;52.128;21.068;2023-09-12T14:40:37;27.60;92.00
5061;DHT22;2549;52.128;21.068;2023-09-12T14:43:10;27.60;92.10
5061;DHT22;2549;52.128;21.068;2023-09-12T14:45:37;27.60;92.10
5061;DHT22;2549;52.128;21.068;2023-09-12T14:48:05;27.50;90.60
5061;DHT22;2549;52.128;21.068;2023-09-12T14:50:34;27.60;91.00
5061;DHT22;2549;52.128;21.068;2023-09-12T14:53:10;27.60;91.60
5061;DHT22;2549;52.128;21.068;2023-09-12T14:55:37;27.60;91.90
5061;DHT22;2549;52.128;21.068;2023-09-12T14:58:03;27.60;92.30
5061;DHT22;2549;52.128;21.068;2023-09-12T15:00:30;27.50;92.20
5061;DHT22;2549;52.128;21.068;2023-09-12T15:03:01;27.50;91.90
5061;DHT22;2549;52.128;21.068;2023-09-12T15:05:28;27.50;92.40
5061;DHT22;2549;52.128;21.068;2023-09-12T15:07:55;27.40;91.70
5061;DHT22;2549;52.128;21.068;2023-09-12T15:10:22;27.40;91.70
5061;DHT22;2549;52.128;21.068;2023-09-12T15:12:49;27.50;91.90
5061;DHT22;2549;52.128;21.068;2023-09-12T15:15:16;27.50;92.10
5061;DHT22;2549;52.128;21.068;2023-09-12T15:17:43;27.50;92.30
5061;DHT22;2549;52.128;21.068;2023-09-12T15:20:10;27.40;92.30
5061;DHT22;2549;52.128;21.068;2023-09-12T15:22:37;27.40;92.60
5061;DHT22;2549;52.128;21.068;2023-09-12T15:25:04;27.40;92.80
5061;DHT22;2549;52.128;21.068;2023-09-12T15:27:31;27.40;93.00
5061;DHT22;2549;52.128;21.068;2023-09-12T15:30:03;27.40;92.90
5061;DHT22;2549;52.128;21.068;2023-09-12T15:32:32;27.40;92.90
5061;DHT22;2549;52.128;21.068;2023-09-12T15:34:59;27.40;93.00
5061;DHT22;2549;52.128;21.068;2023-09-12T15:37:29;27.40;93.20
5061;DHT22;2549;52.128;21.068;2023-09-12T15:39:56;27.30;93.30
5061;DHT22;2549;52.128;21.068;2023-09-12T15:42:23;27.30;93.50
5061;DHT22;2549;52.128;21.068;2023-09-12T15:45:03;27.30;93.30
5061;DHT22;2549;52.128;21.068;2023-09-12T15:47:31;27.30;93.30
5061;DHT22;2549;52.128;21.068;2023-09-12T15:49:59;27.30;93.30
5061;DHT22;2549;52.128;21.068;2023-09-12T15:52:26;27.30;93.40
5061;DHT22;2549;52.128;21.068;2023-09-12T15:54:52;27.30;93.60
5061;DHT22;2549;52.128;21.068;2023-09-12T15:57:21;27.30;94.30
5061;DHT22;2549;52.128;21.068;2023-09-12T15:59:48;27.30;94.20
5061;DHT22;2549;52.128;21.068;2023-09-12T16:02:16;27.30;94.30
5061;DHT22;2549;52.128;21.068;2023-09-12T16:04:43;27.20;94.50
5061;DHT22;2549;52.128;21.068;2023-09-12T16:07:10;27.20;94.90